Terminal Aerodrome Forecast
Issued by NWS

Home | Current Version | Previous Version | Text Only | Print | Product List | Glossary On
Versions: 1 2 3 4 5 6 7 8 9 10 11 12 13 14 15 16 17 18 19 20 21 22 23 24 25 26 27 28 29 30
568
FTUS46 KSGX 241508 AAA
TAFSAN
TAF AMD
KSAN 241508Z 2415/2518 16006KT 6SM BR BKN006
     FM241600 18006KT P6SM SCT008 BKN200
     FM241800 21012KT P6SM SCT015 SCT200
     FM250100 19005KT P6SM SCT010 SCT200
     FM250600 VRB04KT 6SM HZ OVC008=

USA.gov is the U.S. government's official web portal to all federal, state and local government web resources and services.